createdAt,value
2018-01-21T00:02:03.353Z,86.90
2018-01-21T00:04:31.625Z,87.90
2018-01-21T00:06:59.869Z,87.10
2018-01-21T00:09:28.113Z,86.50
2018-01-21T00:11:57.144Z,88.40
2018-01-21T00:14:25.386Z,88.40
2018-01-21T00:16:53.629Z,90.00
2018-01-21T00:19:22.180Z,87.20
2018-01-21T00:21:50.420Z,86.90
2018-01-21T00:24:18.664Z,88.10
2018-01-21T00:26:46.930Z,87.70
2018-01-21T00:29:15.310Z,90.00
2018-01-21T00:31:43.548Z,90.10
2018-01-21T00:34:11.804Z,90.40
2018-01-21T00:36:40.053Z,89.90
2018-01-21T00:39:08.295Z,90.50
2018-01-21T00:41:36.781Z,90.00
2018-01-21T00:44:05.021Z,90.50
2018-01-21T00:46:34.028Z,90.40
2018-01-21T00:49:02.293Z,90.40
2018-01-21T00:51:30.856Z,90.20
2018-01-21T00:53:59.099Z,90.00
2018-01-21T00:56:27.349Z,90.00
2018-01-21T00:58:55.584Z,89.60
2018-01-21T01:01:23.821Z,89.90
2018-01-21T01:03:52.500Z,90.80
2018-01-21T01:06:20.740Z,90.90
2018-01-21T01:08:48.980Z,91.30
2018-01-21T01:11:17.244Z,91.00
2018-01-21T01:13:45.492Z,91.40
2018-01-21T01:16:13.740Z,91.90
2018-01-21T01:18:42.777Z,91.30
2018-01-21T01:21:11.016Z,91.30
2018-01-21T01:23:39.265Z,91.30
2018-01-21T01:26:07.786Z,90.80
2018-01-21T01:28:36.024Z,90.70
2018-01-21T01:31:04.268Z,90.50
2018-01-21T01:33:32.536Z,90.50
2018-01-21T01:36:00.773Z,90.70
2018-01-21T01:38:29.772Z,90.60
2018-01-21T01:40:58.810Z,90.50
2018-01-21T01:43:27.032Z,90.40
2018-01-21T01:45:55.261Z,90.50
2018-01-21T01:48:23.692Z,90.70
2018-01-21T01:50:52.688Z,91.00
2018-01-21T01:53:21.270Z,91.00
2018-01-21T01:55:50.292Z,91.30
2018-01-21T01:58:18.524Z,91.30
2018-01-21T02:00:46.752Z,91.50
2018-01-21T02:03:15.012Z,91.80
2018-01-21T02:05:43.236Z,92.10
2018-01-21T02:08:11.468Z,91.90
2018-01-21T02:10:40.273Z,92.00
2018-01-21T02:13:08.500Z,92.30
2018-01-21T02:15:36.731Z,92.00
2018-01-21T02:18:04.983Z,92.10
2018-01-21T02:20:33.211Z,92.40
2018-01-21T02:23:01.460Z,92.30
2018-01-21T02:25:29.707Z,92.80
2018-01-21T02:27:57.940Z,92.40
2018-01-21T02:30:26.176Z,92.80
2018-01-21T02:32:54.782Z,92.40
2018-01-21T02:35:22.988Z,92.40
2018-01-21T02:37:51.220Z,92.00
2018-01-21T02:40:19.476Z,92.10
2018-01-21T02:42:47.709Z,92.00
2018-01-21T02:45:15.944Z,91.90
2018-01-21T02:47:44.197Z,92.10
2018-01-21T02:50:12.438Z,92.30
2018-01-21T02:52:40.664Z,92.40
2018-01-21T02:55:09.557Z,92.20
2018-01-21T02:57:37.790Z,92.10
2018-01-21T03:00:06.020Z,92.30
2018-01-21T03:02:34.273Z,92.50
2018-01-21T03:05:02.505Z,92.50
2018-01-21T03:07:30.740Z,92.50
2018-01-21T03:09:59.001Z,92.20
2018-01-21T03:12:27.233Z,92.20
2018-01-21T03:14:55.464Z,91.60
2018-01-21T03:17:23.871Z,91.70
2018-01-21T03:19:52.864Z,92.00
2018-01-21T03:22:21.102Z,92.00
2018-01-21T03:24:49.352Z,92.50
2018-01-21T03:27:17.585Z,92.70
2018-01-21T03:29:45.821Z,93.10
2018-01-21T03:32:14.075Z,93.00
2018-01-21T03:34:42.317Z,93.10
2018-01-21T03:37:10.557Z,93.30
2018-01-21T03:39:39.283Z,93.80
2018-01-21T03:42:08.077Z,93.60
2018-01-21T03:44:36.299Z,93.50
2018-01-21T03:47:05.817Z,93.60
2018-01-21T03:49:34.048Z,93.60
2018-01-21T03:52:02.508Z,93.70
2018-01-21T03:54:30.761Z,93.40
2018-01-21T03:56:59.296Z,93.80
2018-01-21T03:59:27.528Z,93.60
2018-01-21T04:01:55.876Z,93.30
2018-01-21T04:04:24.873Z,93.90
2018-01-21T04:06:53.113Z,93.80
2018-01-21T04:09:21.363Z,94.00
2018-01-21T04:11:49.599Z,94.00
2018-01-21T04:14:18.600Z,94.70
2018-01-21T04:16:46.853Z,94.60
2018-01-21T04:19:15.290Z,94.50
2018-01-21T04:21:43.528Z,94.60
2018-01-21T04:24:12.136Z,94.90
2018-01-21T04:26:40.369Z,95.60
2018-01-21T04:29:08.601Z,95.70
2018-01-21T04:31:36.860Z,95.70
2018-01-21T04:34:05.092Z,95.50
2018-01-21T04:36:33.320Z,95.90
2018-01-21T04:39:01.573Z,95.90
2018-01-21T04:41:29.800Z,96.10
2018-01-21T04:43:58.044Z,96.50
2018-01-21T04:46:26.460Z,96.60
2018-01-21T04:48:54.705Z,96.50
2018-01-21T04:51:22.936Z,96.20
2018-01-21T04:53:51.189Z,96.40
2018-01-21T04:56:19.412Z,96.20
2018-01-21T04:58:47.808Z,95.80
2018-01-21T05:01:16.060Z,95.80
2018-01-21T05:03:44.293Z,96.00
2018-01-21T05:06:12.533Z,96.00
2018-01-21T05:08:41.116Z,95.80
2018-01-21T05:11:09.352Z,96.10
2018-01-21T05:13:37.580Z,96.60
2018-01-21T05:16:05.827Z,96.70
2018-01-21T05:18:34.061Z,96.90
2018-01-21T05:21:02.297Z,96.90
2018-01-21T05:23:30.556Z,96.50
2018-01-21T05:25:58.792Z,96.60
2018-01-21T05:28:27.024Z,96.80
2018-01-21T05:30:55.612Z,97.20
2018-01-21T05:33:23.843Z,97.40
2018-01-21T05:35:52.081Z,97.20
2018-01-21T05:38:20.324Z,97.50
2018-01-21T05:40:48.566Z,97.50
2018-01-21T05:43:16.788Z,97.60
2018-01-21T05:45:45.044Z,97.70
2018-01-21T05:48:13.274Z,97.80
2018-01-21T05:50:41.505Z,98.20
2018-01-21T05:53:10.107Z,98.10
2018-01-21T05:55:38.336Z,98.40
2018-01-21T05:58:06.566Z,98.00
2018-01-21T06:00:35.068Z,97.30
2018-01-21T06:03:03.292Z,97.50
2018-01-21T06:05:31.528Z,97.50
2018-01-21T06:07:59.784Z,97.40
2018-01-21T06:10:28.021Z,96.50
2018-01-21T06:12:56.253Z,95.90
2018-01-21T06:15:24.568Z,95.90
2018-01-21T06:17:52.800Z,95.60
2018-01-21T06:20:21.032Z,95.10
2018-01-21T06:22:49.288Z,95.00
2018-01-21T06:25:17.521Z,95.00
2018-01-21T06:27:45.748Z,95.30
2018-01-21T06:30:15.113Z,95.00
2018-01-21T06:32:43.346Z,95.50
2018-01-21T06:35:11.577Z,95.00
2018-01-21T06:37:39.967Z,95.20
2018-01-21T06:40:08.961Z,94.50
2018-01-21T06:42:37.954Z,93.20
2018-01-21T06:45:06.972Z,92.80
2018-01-21T06:47:35.213Z,92.80
2018-01-21T06:50:03.445Z,93.10
2018-01-21T06:52:31.700Z,93.00
2018-01-21T06:54:59.940Z,92.80
2018-01-21T06:57:28.169Z,92.50
2018-01-21T06:59:56.641Z,92.90
2018-01-21T07:02:25.012Z,93.40
2018-01-21T07:04:53.253Z,93.60
2018-01-21T07:07:21.504Z,93.80
2018-01-21T07:09:49.736Z,94.00
2018-01-21T07:12:17.972Z,94.40
2018-01-21T07:14:46.289Z,94.10
2018-01-21T07:17:14.512Z,93.60
2018-01-21T07:19:42.744Z,94.50
2018-01-21T07:22:11.309Z,94.80
2018-01-21T07:24:39.539Z,95.10
2018-01-21T07:27:07.777Z,94.40
2018-01-21T07:29:36.031Z,95.10
2018-01-21T07:32:04.262Z,95.10
2018-01-21T07:34:32.493Z,95.00
2018-01-21T07:37:00.745Z,94.60
2018-01-21T07:39:28.976Z,95.10
2018-01-21T07:41:57.209Z,95.30
2018-01-21T07:44:26.861Z,95.30
2018-01-21T07:46:55.088Z,95.20
2018-01-21T07:49:23.316Z,94.50
2018-01-21T07:51:51.625Z,95.30
2018-01-21T07:54:19.865Z,95.60
2018-01-21T07:56:48.092Z,96.40
2018-01-21T07:59:16.344Z,96.40
2018-01-21T08:01:44.577Z,96.20
2018-01-21T08:04:13.264Z,95.90
2018-01-21T08:06:41.597Z,95.00
2018-01-21T08:09:09.834Z,95.60
2018-01-21T08:11:38.070Z,94.80
2018-01-21T08:14:07.084Z,94.50
2018-01-21T08:16:35.317Z,94.50
2018-01-21T08:19:03.552Z,94.50
2018-01-21T08:21:32.100Z,94.60
2018-01-21T08:24:00.329Z,94.10
2018-01-21T08:26:28.557Z,93.30
2018-01-21T08:28:57.157Z,93.30
2018-01-21T08:31:25.392Z,93.30
2018-01-21T08:33:59.213Z,92.70
2018-01-21T08:36:33.395Z,92.70
2018-01-21T08:39:07.214Z,92.60
2018-01-21T08:41:37.392Z,92.70
2018-01-21T08:44:05.625Z,92.70
2018-01-21T08:46:34.157Z,92.60
2018-01-21T08:49:02.408Z,91.30
2018-01-21T08:51:30.836Z,91.20
2018-01-21T08:53:59.092Z,91.50
2018-01-21T08:56:27.322Z,92.00
2018-01-21T08:58:56.316Z,90.50
2018-01-21T09:01:24.564Z,90.10
2018-01-21T09:03:52.799Z,89.40
2018-01-21T09:06:21.249Z,87.50
2018-01-21T09:08:49.833Z,89.50
2018-01-21T09:11:18.060Z,90.70
2018-01-21T09:13:46.289Z,88.60
2018-01-21T09:16:15.314Z,88.20
2018-01-21T09:18:43.627Z,88.20
2018-01-21T09:21:11.857Z,85.60
2018-01-21T09:23:40.120Z,87.10
2018-01-21T09:26:09.136Z,87.60
2018-01-21T09:28:37.364Z,87.50
2018-01-21T09:31:05.791Z,87.20
2018-01-21T09:33:34.020Z,87.60
2018-01-21T09:36:02.252Z,86.80
2018-01-21T09:38:30.513Z,85.30
2018-01-21T09:40:58.748Z,86.20
2018-01-21T09:43:26.982Z,82.00
2018-01-21T09:45:55.233Z,82.40
2018-01-21T09:48:23.468Z,81.00
2018-01-21T09:50:51.696Z,80.90
2018-01-21T09:53:20.152Z,78.70
2018-01-21T09:55:48.389Z,77.60
2018-01-21T09:58:16.666Z,74.00
2018-01-21T10:00:44.909Z,74.30
2018-01-21T10:03:13.140Z,72.50
2018-01-21T10:05:41.368Z,73.50
2018-01-21T10:08:09.912Z,73.20
2018-01-21T10:10:38.136Z,75.40
2018-01-21T10:13:06.368Z,73.40
2018-01-21T10:15:34.844Z,72.00
2018-01-21T10:18:03.071Z,72.20
2018-01-21T10:20:31.309Z,72.90
2018-01-21T10:23:00.358Z,71.80
2018-01-21T10:25:28.573Z,71.70
2018-01-21T10:27:56.807Z,72.80
2018-01-21T10:30:25.058Z,72.80
2018-01-21T10:32:53.289Z,72.00
2018-01-21T10:35:21.520Z,72.20
2018-01-21T10:37:50.083Z,73.10
2018-01-21T10:40:18.304Z,73.40
2018-01-21T10:42:46.545Z,72.90
2018-01-21T10:45:14.792Z,71.30
2018-01-21T10:47:43.797Z,70.60
2018-01-21T10:50:12.814Z,70.40
2018-01-21T10:52:41.065Z,70.30
2018-01-21T10:55:09.292Z,70.40
2018-01-21T10:57:37.566Z,69.70
2018-01-21T11:00:06.010Z,69.20
2018-01-21T11:02:34.240Z,67.90
2018-01-21T11:05:02.468Z,68.90
2018-01-21T11:07:30.729Z,70.40
2018-01-21T11:09:59.180Z,69.80
2018-01-21T11:12:27.414Z,68.20
2018-01-21T11:14:55.664Z,69.00
2018-01-21T11:17:23.909Z,69.50
2018-01-21T11:19:52.358Z,65.50
2018-01-21T11:22:20.673Z,62.40
2018-01-21T11:24:48.900Z,60.00
2018-01-21T11:27:17.132Z,57.90
2018-01-21T11:29:45.388Z,56.50
2018-01-21T11:32:13.616Z,56.40
2018-01-21T11:34:41.850Z,55.80
2018-01-21T11:37:10.113Z,54.20
2018-01-21T11:39:38.341Z,53.70
2018-01-21T11:42:06.580Z,53.00
2018-01-21T11:44:36.241Z,52.30
2018-01-21T11:47:04.485Z,52.00
2018-01-21T11:49:33.488Z,50.10
2018-01-21T11:52:01.749Z,50.00
2018-01-21T11:54:29.989Z,49.90
2018-01-21T11:56:58.229Z,50.30
2018-01-21T11:59:26.501Z,49.30
2018-01-21T12:01:54.740Z,48.90
2018-01-21T12:04:22.978Z,49.20
2018-01-21T12:06:51.653Z,50.10
2018-01-21T12:09:19.884Z,49.00
2018-01-21T12:11:48.636Z,49.10
2018-01-21T12:14:16.889Z,46.60
2018-01-21T12:16:45.124Z,45.20
2018-01-21T12:19:14.142Z,45.70
2018-01-21T12:21:42.397Z,45.70
2018-01-21T12:24:10.849Z,46.80
2018-01-21T12:26:39.080Z,46.30
2018-01-21T12:29:07.428Z,47.70
2018-01-21T12:31:35.660Z,46.30
2018-01-21T12:34:04.057Z,45.60
2018-01-21T12:36:32.312Z,47.00
2018-01-21T12:39:00.565Z,46.70
2018-01-21T12:41:28.813Z,45.80
2018-01-21T12:43:57.104Z,45.60
2018-01-21T12:46:25.352Z,44.60
2018-01-21T12:48:53.708Z,44.00
2018-01-21T12:51:22.252Z,43.90
2018-01-21T12:53:50.504Z,44.90
2018-01-21T12:56:19.664Z,43.00
2018-01-21T12:58:47.900Z,43.00
2018-01-21T13:01:17.148Z,43.50
2018-01-21T13:03:45.384Z,46.50
2018-01-21T13:06:13.672Z,45.20
2018-01-21T13:08:41.984Z,45.70
2018-01-21T13:11:10.393Z,46.10
2018-01-21T13:13:39.548Z,43.90
2018-01-21T13:16:07.765Z,43.70
2018-01-21T13:18:36.777Z,43.40
2018-01-21T13:21:10.605Z,43.40
2018-01-21T13:23:39.004Z,43.20
2018-01-21T13:26:11.770Z,42.50
2018-01-21T13:28:40.988Z,43.80
2018-01-21T13:31:09.229Z,44.50
2018-01-21T13:33:37.677Z,44.20
2018-01-21T13:36:05.917Z,43.20
2018-01-21T13:38:34.205Z,43.80
2018-01-21T13:41:02.471Z,45.30
2018-01-21T13:43:30.716Z,44.10
2018-01-21T13:45:59.061Z,43.40
2018-01-21T13:48:28.086Z,45.90
2018-01-21T13:51:00.391Z,45.90
2018-01-21T13:53:28.668Z,46.20
2018-01-21T13:55:58.152Z,45.00
2018-01-21T13:58:26.456Z,46.30
2018-01-21T14:00:56.744Z,47.10
2018-01-21T14:03:25.084Z,47.50
2018-01-21T14:05:54.380Z,49.60
2018-01-21T14:08:22.731Z,49.30
2018-01-21T14:10:51.145Z,49.70
2018-01-21T14:13:23.793Z,49.60
2018-01-21T14:15:52.261Z,49.90
2018-01-21T14:18:21.516Z,50.40
2018-01-21T14:20:50.520Z,50.50
2018-01-21T14:23:19.536Z,50.20
2018-01-21T14:25:47.843Z,50.20
2018-01-21T14:28:16.224Z,50.20
2018-01-21T14:30:44.478Z,50.40
2018-01-21T14:33:12.753Z,50.90
2018-01-21T14:35:45.841Z,52.10
2018-01-21T14:38:14.089Z,52.10
2018-01-21T14:40:42.413Z,52.30
2018-01-21T14:43:10.837Z,52.90
2018-01-21T14:45:41.014Z,53.80
2018-01-21T14:48:09.439Z,53.80
2018-01-21T14:50:37.809Z,52.00
2018-01-21T14:53:06.153Z,52.50
2018-01-21T14:55:34.379Z,52.40
2018-01-21T14:58:03.455Z,53.00
2018-01-21T15:00:31.712Z,53.00
2018-01-21T15:02:59.952Z,53.50
2018-01-21T15:05:28.206Z,53.70
2018-01-21T15:07:56.459Z,53.90
2018-01-21T15:10:24.677Z,52.70
2018-01-21T15:12:52.937Z,53.00
2018-01-21T15:15:21.933Z,53.60
2018-01-21T15:17:52.094Z,53.80
2018-01-21T15:20:20.560Z,53.80
2018-01-21T15:22:48.849Z,54.30
2018-01-21T15:25:17.438Z,54.70
2018-01-21T15:27:47.049Z,55.40
2018-01-21T15:30:16.448Z,55.90
2018-01-21T15:32:44.678Z,55.10
2018-01-21T15:35:13.881Z,55.40
2018-01-21T15:37:44.045Z,55.20
2018-01-21T15:40:12.424Z,55.20
2018-01-21T15:42:40.888Z,55.50
2018-01-21T15:45:10.313Z,55.80
2018-01-21T15:47:38.586Z,56.00
2018-01-21T15:50:06.852Z,55.80
2018-01-21T15:52:35.076Z,55.50
2018-01-21T15:55:04.442Z,55.40
2018-01-21T15:57:32.676Z,55.30
2018-01-21T16:00:01.910Z,55.10
2018-01-21T16:02:30.314Z,56.20
2018-01-21T16:04:58.766Z,55.20
2018-01-21T16:07:27.257Z,55.00
2018-01-21T16:09:56.708Z,55.20
2018-01-21T16:12:26.904Z,55.10
2018-01-21T16:14:55.569Z,55.00
2018-01-21T16:17:23.948Z,54.90
2018-01-21T16:19:52.204Z,55.80
2018-01-21T16:22:20.432Z,55.90
2018-01-21T16:24:49.437Z,56.00
2018-01-21T16:27:19.809Z,56.00
2018-01-21T16:29:48.036Z,56.00
2018-01-21T16:32:22.881Z,55.70
2018-01-21T16:34:52.870Z,55.60
2018-01-21T16:37:33.052Z,55.60
2018-01-21T16:40:04.481Z,56.60
2018-01-21T16:42:33.126Z,56.60
2018-01-21T16:45:02.928Z,57.10
2018-01-21T16:47:31.241Z,57.10
2018-01-21T16:49:59.468Z,57.30
2018-01-21T16:52:27.724Z,58.00
2018-01-21T16:54:56.740Z,58.30
2018-01-21T16:57:25.045Z,58.30
2018-01-21T16:59:53.458Z,58.20
2018-01-21T17:02:21.807Z,58.20
2018-01-21T17:04:50.196Z,58.60
2018-01-21T17:07:19.097Z,58.70
2018-01-21T17:09:47.332Z,58.40
2018-01-21T17:12:15.736Z,58.80
2018-01-21T17:14:44.077Z,58.80
2018-01-21T17:17:12.736Z,59.50
2018-01-21T17:19:42.921Z,59.00
2018-01-21T17:22:11.325Z,58.90
2018-01-21T17:24:39.725Z,58.60
2018-01-21T17:27:08.053Z,58.90
2018-01-21T17:29:38.359Z,59.10
2018-01-21T17:32:06.588Z,59.50
2018-01-21T17:34:35.083Z,59.50
2018-01-21T17:37:03.469Z,59.80
2018-01-21T17:39:32.484Z,59.70
2018-01-21T17:42:00.790Z,59.70
2018-01-21T17:44:29.375Z,59.60
2018-01-21T17:46:57.581Z,59.40
2018-01-21T17:49:26.889Z,60.60
2018-01-21T17:51:56.061Z,61.00
2018-01-21T17:54:24.339Z,60.20
2018-01-21T17:56:52.548Z,59.90
2018-01-21T17:59:21.008Z,59.70
2018-01-21T18:01:50.288Z,61.00
2018-01-21T18:04:18.661Z,62.00
2018-01-21T18:06:48.917Z,60.60
2018-01-21T18:09:17.279Z,60.10
2018-01-21T18:11:45.638Z,61.20
2018-01-21T18:14:14.101Z,59.80
2018-01-21T18:16:42.420Z,60.60
2018-01-21T18:19:12.008Z,60.70
2018-01-21T18:21:40.412Z,61.20
2018-01-21T18:24:08.768Z,60.60
2018-01-21T18:26:38.081Z,62.20
2018-01-21T18:29:06.481Z,62.00
2018-01-21T18:31:35.484Z,61.90
2018-01-21T18:34:04.757Z,60.20
2018-01-21T18:36:33.203Z,60.10
2018-01-21T18:39:05.702Z,61.00
2018-01-21T18:41:33.940Z,60.10
2018-01-21T18:44:07.164Z,60.30
2018-01-21T18:46:36.492Z,60.80
2018-01-21T18:49:06.721Z,61.20
2018-01-21T18:51:35.069Z,62.00
2018-01-21T18:54:03.528Z,62.40
2018-01-21T18:56:31.765Z,60.90
2018-01-21T18:59:00.209Z,60.70
2018-01-21T19:01:28.609Z,62.00
2018-01-21T19:03:57.173Z,61.40
2018-01-21T19:06:26.573Z,61.80
2018-01-21T19:08:54.976Z,61.40
2018-01-21T19:11:23.331Z,61.50
2018-01-21T19:13:51.903Z,61.20
2018-01-21T19:16:20.272Z,61.40
2018-01-21T19:18:48.509Z,62.80
2018-01-21T19:21:18.384Z,62.10
2018-01-21T19:23:46.785Z,62.10
2018-01-21T19:26:16.986Z,62.20
2018-01-21T19:28:45.365Z,61.60
2018-01-21T19:31:13.764Z,61.60
2018-01-21T19:33:41.996Z,61.10
2018-01-21T19:36:11.424Z,61.40
2018-01-21T19:38:44.833Z,61.50
2018-01-21T19:44:21.936Z,61.50
2018-01-21T19:46:51.330Z,61.90
2018-01-21T19:49:20.016Z,63.20
2018-01-21T19:51:48.268Z,61.70
2018-01-21T19:54:16.516Z,62.10
2018-01-21T19:56:45.514Z,61.80
2018-01-21T19:59:14.737Z,62.50
2018-01-21T20:01:42.960Z,62.50
2018-01-21T20:04:11.212Z,63.40
2018-01-21T20:06:39.468Z,61.90
2018-01-21T20:09:07.772Z,61.90
2018-01-21T20:11:36.080Z,63.50
2018-01-21T20:14:05.117Z,65.70
2018-01-21T20:16:33.416Z,65.70
2018-01-21T20:19:01.668Z,64.20
2018-01-21T20:21:30.561Z,63.20
2018-01-21T20:23:58.926Z,65.30
2018-01-21T20:26:27.156Z,65.70
2018-01-21T20:28:55.422Z,65.00
2018-01-21T20:31:23.657Z,66.60
2018-01-21T20:33:52.072Z,65.70
2018-01-21T20:36:20.332Z,68.00
2018-01-21T20:38:48.577Z,67.20
2018-01-21T20:41:16.812Z,67.30
2018-01-21T20:43:45.280Z,67.10
2018-01-21T20:46:13.506Z,67.00
2018-01-21T20:48:41.742Z,67.60
2018-01-21T20:51:15.717Z,68.90
2018-01-21T20:53:49.584Z,68.20
2018-01-21T20:56:18.617Z,68.50
2018-01-21T20:58:46.856Z,68.40
2018-01-21T21:01:15.092Z,67.80
2018-01-21T21:03:43.529Z,66.80
2018-01-21T21:06:11.765Z,68.70
2018-01-21T21:08:40.008Z,68.00
2018-01-21T21:11:08.277Z,68.30
2018-01-21T21:13:36.524Z,67.60
2018-01-21T21:16:04.763Z,69.00
2018-01-21T21:18:33.020Z,67.30
2018-01-21T21:21:01.268Z,68.40
2018-01-21T21:23:29.836Z,68.40
2018-01-21T21:25:59.195Z,68.50
2018-01-21T21:28:27.432Z,68.50
2018-01-21T21:30:55.672Z,69.60
2018-01-21T21:33:23.932Z,68.80
2018-01-21T21:35:52.172Z,69.40
2018-01-21T21:38:20.417Z,68.00
2018-01-21T21:40:49.444Z,68.00
2018-01-21T21:43:17.677Z,68.00
2018-01-21T21:45:46.137Z,68.00
2018-01-21T21:48:14.637Z,67.80
2018-01-21T21:50:42.881Z,67.40
2018-01-21T21:53:11.114Z,70.10
2018-01-21T21:55:39.377Z,69.30
2018-01-21T21:58:08.384Z,69.40
2018-01-21T22:00:37.393Z,69.10
2018-01-21T22:03:05.672Z,69.00
2018-01-21T22:05:33.932Z,68.50
2018-01-21T22:08:02.177Z,69.70
2018-01-21T22:10:30.924Z,69.60
2018-01-21T22:12:59.252Z,69.50
2018-01-21T22:15:27.494Z,68.90
2018-01-21T22:17:55.752Z,70.00
2018-01-21T22:20:24.000Z,70.40
2018-01-21T22:22:52.232Z,70.90
2018-01-21T22:25:20.880Z,70.00
2018-01-21T22:27:49.229Z,70.50
2018-01-21T22:30:18.229Z,69.80
2018-01-21T22:32:47.879Z,70.60
2018-01-21T22:35:16.209Z,70.60
2018-01-21T22:37:45.216Z,69.60
2018-01-21T22:40:14.245Z,71.20
2018-01-21T22:42:42.489Z,71.20
2018-01-21T22:45:10.728Z,70.60
2018-01-21T22:47:39.001Z,70.50
2018-01-21T22:50:07.250Z,71.30
2018-01-21T22:52:35.481Z,70.90
2018-01-21T22:55:05.133Z,70.60
2018-01-21T22:57:33.472Z,70.60
2018-01-21T23:00:02.486Z,71.10
2018-01-21T23:05:24.113Z,71.40
2018-01-21T23:07:53.129Z,69.90
2018-01-21T23:10:27.669Z,69.90
2018-01-21T23:12:55.910Z,69.80
2018-01-21T23:15:24.157Z,69.40
2018-01-21T23:17:53.681Z,69.90
2018-01-21T23:20:33.773Z,69.30
2018-01-21T23:23:02.041Z,70.00
2018-01-21T23:25:30.810Z,70.50
2018-01-21T23:27:59.821Z,70.60
2018-01-21T23:30:28.529Z,70.60
2018-01-21T23:32:56.785Z,70.80
2018-01-21T23:35:25.033Z,70.30
2018-01-21T23:37:53.317Z,70.20
2018-01-21T23:40:22.333Z,70.00
2018-01-21T23:42:50.581Z,69.90
2018-01-21T23:45:18.857Z,70.20
2018-01-21T23:47:47.101Z,70.00
2018-01-21T23:50:15.353Z,70.70
2018-01-21T23:52:44.861Z,70.40
2018-01-21T23:55:13.120Z,70.40
2018-01-21T23:57:41.365Z,70.00
